sensor_id;sensor_type;location;lat;lon;timestamp;temperature;humidity
20376;DHT22;10347;51.828;6.466;2023-10-19T00:00:31;12.80;99.90
20376;DHT22;10347;51.828;6.466;2023-10-19T00:02:59;12.80;99.90
20376;DHT22;10347;51.828;6.466;2023-10-19T00:05:28;12.90;99.90
20376;DHT22;10347;51.828;6.466;2023-10-19T00:07:56;12.80;99.90
20376;DHT22;10347;51.828;6.466;2023-10-19T00:10:23;12.90;99.90
20376;DHT22;10347;51.828;6.466;2023-10-19T00:12:51;12.90;99.90
20376;DHT22;10347;51.828;6.466;2023-10-19T00:15:26;12.90;99.90
20376;DHT22;10347;51.828;6.466;2023-10-19T00:17:55;12.90;99.90
20376;DHT22;10347;51.828;6.466;2023-10-19T00:20:21;13.00;99.90
20376;DHT22;10347;51.828;6.466;2023-10-19T00:22:53;13.00;99.90
20376;DHT22;10347;51.828;6.466;2023-10-19T00:25:19;13.00;99.90
20376;DHT22;10347;51.828;6.466;2023-10-19T00:27:48;13.00;99.90
20376;DHT22;10347;51.828;6.466;2023-10-19T00:30:14;13.00;99.90
20376;DHT22;10347;51.828;6.466;2023-10-19T00:32:44;13.00;99.90
20376;DHT22;10347;51.828;6.466;2023-10-19T00:35:11;13.00;99.90
20376;DHT22;10347;51.828;6.466;2023-10-19T00:37:54;13.00;99.90
20376;DHT22;10347;51.828;6.466;2023-10-19T00:40:22;13.00;99.90
20376;DHT22;10347;51.828;6.466;2023-10-19T00:43:03;13.00;99.90
20376;DHT22;10347;51.828;6.466;2023-10-19T00:45:33;13.00;99.90
20376;DHT22;10347;51.828;6.466;2023-10-19T00:48:06;13.10;99.90
20376;DHT22;10347;51.828;6.466;2023-10-19T00:50:33;13.10;99.90
20376;DHT22;10347;51.828;6.466;2023-10-19T00:53:01;13.10;99.90
20376;DHT22;10347;51.828;6.466;2023-10-19T00:55:28;13.10;99.90
20376;DHT22;10347;51.828;6.466;2023-10-19T00:57:54;13.10;99.90
20376;DHT22;10347;51.828;6.466;2023-10-19T01:00:20;13.10;99.90
20376;DHT22;10347;51.828;6.466;2023-10-19T01:03:00;13.10;99.90
20376;DHT22;10347;51.828;6.466;2023-10-19T01:05:28;13.10;99.90
20376;DHT22;10347;51.828;6.466;2023-10-19T01:08:01;13.20;99.90
20376;DHT22;10347;51.828;6.466;2023-10-19T01:10:29;13.20;99.90
20376;DHT22;10347;51.828;6.466;2023-10-19T01:12:54;13.20;99.90
20376;DHT22;10347;51.828;6.466;2023-10-19T01:15:22;13.20;99.90
20376;DHT22;10347;51.828;6.466;2023-10-19T01:17:54;13.20;99.90
20376;DHT22;10347;51.828;6.466;2023-10-19T01:20:24;13.20;99.90
20376;DHT22;10347;51.828;6.466;2023-10-19T01:23:00;13.20;99.90
20376;DHT22;10347;51.828;6.466;2023-10-19T01:25:48;13.20;99.90
20376;DHT22;10347;51.828;6.466;2023-10-19T01:28:21;13.20;99.90
20376;DHT22;10347;51.828;6.466;2023-10-19T01:30:51;13.20;99.90
20376;DHT22;10347;51.828;6.466;2023-10-19T01:33:17;13.20;99.90
20376;DHT22;10347;51.828;6.466;2023-10-19T01:35:44;13.20;99.90
20376;DHT22;10347;51.828;6.466;2023-10-19T01:38:29;13.20;99.90
20376;DHT22;10347;51.828;6.466;2023-10-19T01:40:59;13.30;99.90
20376;DHT22;10347;51.828;6.466;2023-10-19T01:43:28;13.30;99.90
20376;DHT22;10347;51.828;6.466;2023-10-19T01:45:57;13.30;99.90
20376;DHT22;10347;51.828;6.466;2023-10-19T01:48:24;13.30;99.90
20376;DHT22;10347;51.828;6.466;2023-10-19T01:51:05;13.30;99.90
20376;DHT22;10347;51.828;6.466;2023-10-19T01:53:32;13.40;99.90
20376;DHT22;10347;51.828;6.466;2023-10-19T01:55:57;13.40;99.90
20376;DHT22;10347;51.828;6.466;2023-10-19T01:58:24;13.40;99.90
20376;DHT22;10347;51.828;6.466;2023-10-19T02:00:53;13.40;99.90
20376;DHT22;10347;51.828;6.466;2023-10-19T02:03:32;13.50;99.90
20376;DHT22;10347;51.828;6.466;2023-10-19T02:06:07;13.50;99.90
20376;DHT22;10347;51.828;6.466;2023-10-19T02:09:00;13.50;99.90
20376;DHT22;10347;51.828;6.466;2023-10-19T02:11:34;13.50;99.90
20376;DHT22;10347;51.828;6.466;2023-10-19T02:14:03;13.50;99.90
20376;DHT22;10347;51.828;6.466;2023-10-19T02:16:42;13.60;99.90
20376;DHT22;10347;51.828;6.466;2023-10-19T02:25:41;13.70;99.90
20376;DHT22;10347;51.828;6.466;2023-10-19T02:28:07;13.70;99.90
20376;DHT22;10347;51.828;6.466;2023-10-19T02:30:34;13.70;99.90
20376;DHT22;10347;51.828;6.466;2023-10-19T02:33:01;13.70;99.90
20376;DHT22;10347;51.828;6.466;2023-10-19T02:35:27;13.70;99.90
20376;DHT22;10347;51.828;6.466;2023-10-19T02:37:53;13.70;99.90
20376;DHT22;10347;51.828;6.466;2023-10-19T02:40:19;13.80;99.90
20376;DHT22;10347;51.828;6.466;2023-10-19T02:42:48;13.80;99.90
20376;DHT22;10347;51.828;6.466;2023-10-19T02:45:16;13.80;99.90
20376;DHT22;10347;51.828;6.466;2023-10-19T02:47:43;13.80;99.90
20376;DHT22;10347;51.828;6.466;2023-10-19T02:50:09;13.80;99.90
20376;DHT22;10347;51.828;6.466;2023-10-19T02:52:48;13.90;99.90
20376;DHT22;10347;51.828;6.466;2023-10-19T02:55:14;13.90;99.90
20376;DHT22;10347;51.828;6.466;2023-10-19T02:57:42;14.00;99.90
20376;DHT22;10347;51.828;6.466;2023-10-19T03:00:12;14.00;99.90
20376;DHT22;10347;51.828;6.466;2023-10-19T03:02:39;14.00;99.90
20376;DHT22;10347;51.828;6.466;2023-10-19T03:05:06;14.00;99.90
20376;DHT22;10347;51.828;6.466;2023-10-19T03:07:38;14.00;99.90
20376;DHT22;10347;51.828;6.466;2023-10-19T03:10:05;14.00;99.90
20376;DHT22;10347;51.828;6.466;2023-10-19T03:12:31;14.00;99.90
20376;DHT22;10347;51.828;6.466;2023-10-19T03:14:58;14.10;99.90
20376;DHT22;10347;51.828;6.466;2023-10-19T03:17:25;14.10;99.90
20376;DHT22;10347;51.828;6.466;2023-10-19T03:19:52;14.10;99.90
20376;DHT22;10347;51.828;6.466;2023-10-19T03:22:17;14.10;99.90
20376;DHT22;10347;51.828;6.466;2023-10-19T03:24:45;14.20;99.90
20376;DHT22;10347;51.828;6.466;2023-10-19T03:27:14;14.20;99.90
20376;DHT22;10347;51.828;6.466;2023-10-19T03:29:51;14.20;99.90
20376;DHT22;10347;51.828;6.466;2023-10-19T03:32:39;14.20;99.90
20376;DHT22;10347;51.828;6.466;2023-10-19T03:35:06;14.20;99.90
20376;DHT22;10347;51.828;6.466;2023-10-19T03:37:31;14.20;99.90
20376;DHT22;10347;51.828;6.466;2023-10-19T03:39:57;14.30;99.90
20376;DHT22;10347;51.828;6.466;2023-10-19T03:42:24;14.30;99.90
20376;DHT22;10347;51.828;6.466;2023-10-19T03:44:52;14.30;99.90
20376;DHT22;10347;51.828;6.466;2023-10-19T03:47:20;14.30;99.90
20376;DHT22;10347;51.828;6.466;2023-10-19T03:49:50;14.40;99.90
20376;DHT22;10347;51.828;6.466;2023-10-19T03:52:16;14.30;99.90
20376;DHT22;10347;51.828;6.466;2023-10-19T03:54:41;14.40;99.90
20376;DHT22;10347;51.828;6.466;2023-10-19T03:57:09;14.30;99.90
20376;DHT22;10347;51.828;6.466;2023-10-19T03:59:40;14.40;99.90
20376;DHT22;10347;51.828;6.466;2023-10-19T04:02:09;14.40;99.90
20376;DHT22;10347;51.828;6.466;2023-10-19T04:04:35;14.40;99.90
20376;DHT22;10347;51.828;6.466;2023-10-19T04:07:01;14.40;99.90
20376;DHT22;10347;51.828;6.466;2023-10-19T04:09:36;14.40;99.90
20376;DHT22;10347;51.828;6.466;2023-10-19T04:12:14;14.40;99.90
20376;DHT22;10347;51.828;6.466;2023-10-19T04:14:42;14.40;99.90
20376;DHT22;10347;51.828;6.466;2023-10-19T04:17:08;14.50;99.90
20376;DHT22;10347;51.828;6.466;2023-10-19T04:19:37;14.50;99.90
20376;DHT22;10347;51.828;6.466;2023-10-19T04:22:03;14.50;99.90
20376;DHT22;10347;51.828;6.466;2023-10-19T04:24:29;14.50;99.90
20376;DHT22;10347;51.828;6.466;2023-10-19T04:26:58;14.50;99.90
20376;DHT22;10347;51.828;6.466;2023-10-19T04:29:24;14.50;99.90
20376;DHT22;10347;51.828;6.466;2023-10-19T04:31:53;14.60;99.90
20376;DHT22;10347;51.828;6.466;2023-10-19T04:34:23;14.60;99.90
20376;DHT22;10347;51.828;6.466;2023-10-19T04:36:50;14.60;99.90
20376;DHT22;10347;51.828;6.466;2023-10-19T04:39:16;14.60;99.90
20376;DHT22;10347;51.828;6.466;2023-10-19T04:41:45;14.60;99.90
20376;DHT22;10347;51.828;6.466;2023-10-19T04:44:14;14.60;99.90
20376;DHT22;10347;51.828;6.466;2023-10-19T04:46:41;14.70;99.90
20376;DHT22;10347;51.828;6.466;2023-10-19T04:49:07;14.60;99.90
20376;DHT22;10347;51.828;6.466;2023-10-19T04:51:33;14.70;99.90
20376;DHT22;10347;51.828;6.466;2023-10-19T04:53:59;14.70;99.90
20376;DHT22;10347;51.828;6.466;2023-10-19T04:56:25;14.70;99.90
20376;DHT22;10347;51.828;6.466;2023-10-19T04:58:51;14.70;99.90
20376;DHT22;10347;51.828;6.466;2023-10-19T05:01:16;14.70;99.90
20376;DHT22;10347;51.828;6.466;2023-10-19T05:03:42;14.70;99.90
20376;DHT22;10347;51.828;6.466;2023-10-19T05:06:08;14.70;99.90
20376;DHT22;10347;51.828;6.466;2023-10-19T05:08:35;14.80;99.90
20376;DHT22;10347;51.828;6.466;2023-10-19T05:11:02;14.80;99.90
20376;DHT22;10347;51.828;6.466;2023-10-19T05:13:30;14.80;99.90
20376;DHT22;10347;51.828;6.466;2023-10-19T05:15:55;14.80;99.90
20376;DHT22;10347;51.828;6.466;2023-10-19T05:18:22;14.80;99.90
20376;DHT22;10347;51.828;6.466;2023-10-19T05:20:48;14.80;99.90
20376;DHT22;10347;51.828;6.466;2023-10-19T05:23:15;14.80;99.90
20376;DHT22;10347;51.828;6.466;2023-10-19T05:25:41;14.80;99.90
20376;DHT22;10347;51.828;6.466;2023-10-19T05:28:06;14.80;99.90
20376;DHT22;10347;51.828;6.466;2023-10-19T05:30:33;14.90;99.90
20376;DHT22;10347;51.828;6.466;2023-10-19T05:32:59;14.90;99.90
20376;DHT22;10347;51.828;6.466;2023-10-19T05:35:27;14.90;99.90
20376;DHT22;10347;51.828;6.466;2023-10-19T05:37:53;14.90;99.90
20376;DHT22;10347;51.828;6.466;2023-10-19T05:40:25;14.90;99.90
20376;DHT22;10347;51.828;6.466;2023-10-19T05:42:57;14.90;99.90
20376;DHT22;10347;51.828;6.466;2023-10-19T05:45:24;14.90;99.90
20376;DHT22;10347;51.828;6.466;2023-10-19T05:47:50;14.90;99.90
20376;DHT22;10347;51.828;6.466;2023-10-19T05:50:15;15.00;99.90
20376;DHT22;10347;51.828;6.466;2023-10-19T05:52:42;15.00;99.90
20376;DHT22;10347;51.828;6.466;2023-10-19T05:55:09;15.00;99.90
20376;DHT22;10347;51.828;6.466;2023-10-19T05:57:37;15.00;99.90
20376;DHT22;10347;51.828;6.466;2023-10-19T06:00:12;15.00;99.90
20376;DHT22;10347;51.828;6.466;2023-10-19T06:02:43;15.00;99.90
20376;DHT22;10347;51.828;6.466;2023-10-19T06:05:10;15.00;99.90
20376;DHT22;10347;51.828;6.466;2023-10-19T06:07:36;15.10;99.90
20376;DHT22;10347;51.828;6.466;2023-10-19T06:10:02;15.10;99.90
20376;DHT22;10347;51.828;6.466;2023-10-19T06:12:32;15.10;99.90
20376;DHT22;10347;51.828;6.466;2023-10-19T06:14:58;15.10;99.90
20376;DHT22;10347;51.828;6.466;2023-10-19T06:17:24;15.10;99.90
20376;DHT22;10347;51.828;6.466;2023-10-19T06:19:49;15.10;99.90
20376;DHT22;10347;51.828;6.466;2023-10-19T06:22:15;15.10;99.90
20376;DHT22;10347;51.828;6.466;2023-10-19T06:24:42;15.10;99.90
20376;DHT22;10347;51.828;6.466;2023-10-19T06:27:10;15.10;99.90
20376;DHT22;10347;51.828;6.466;2023-10-19T06:29:35;15.10;99.90
20376;DHT22;10347;51.828;6.466;2023-10-19T06:32:01;15.10;99.90
20376;DHT22;10347;51.828;6.466;2023-10-19T06:34:27;15.10;99.90
20376;DHT22;10347;51.828;6.466;2023-10-19T06:36:53;15.20;99.90
20376;DHT22;10347;51.828;6.466;2023-10-19T06:39:20;15.20;99.90
20376;DHT22;10347;51.828;6.466;2023-10-19T06:41:47;15.20;99.90
20376;DHT22;10347;51.828;6.466;2023-10-19T06:44:13;15.20;99.90
20376;DHT22;10347;51.828;6.466;2023-10-19T06:46:39;15.20;99.90
20376;DHT22;10347;51.828;6.466;2023-10-19T06:49:05;15.20;99.90
20376;DHT22;10347;51.828;6.466;2023-10-19T06:51:31;15.20;99.90
20376;DHT22;10347;51.828;6.466;2023-10-19T06:53:58;15.20;99.90
20376;DHT22;10347;51.828;6.466;2023-10-19T06:56:24;15.20;99.90
20376;DHT22;10347;51.828;6.466;2023-10-19T06:58:50;15.20;99.90
20376;DHT22;10347;51.828;6.466;2023-10-19T07:01:15;15.20;99.90
20376;DHT22;10347;51.828;6.466;2023-10-19T07:03:42;15.20;99.90
20376;DHT22;10347;51.828;6.466;2023-10-19T07:06:07;15.20;99.90
20376;DHT22;10347;51.828;6.466;2023-10-19T07:08:39;15.20;99.90
20376;DHT22;10347;51.828;6.466;2023-10-19T07:11:07;15.30;99.90
20376;DHT22;10347;51.828;6.466;2023-10-19T07:13:33;15.30;99.90
20376;DHT22;10347;51.828;6.466;2023-10-19T07:15:59;15.30;99.90
20376;DHT22;10347;51.828;6.466;2023-10-19T07:18:24;15.30;99.90
20376;DHT22;10347;51.828;6.466;2023-10-19T07:20:51;15.30;99.90
20376;DHT22;10347;51.828;6.466;2023-10-19T07:23:18;15.30;99.90
20376;DHT22;10347;51.828;6.466;2023-10-19T07:25:47;15.30;99.90
20376;DHT22;10347;51.828;6.466;2023-10-19T07:28:14;15.30;99.90
20376;DHT22;10347;51.828;6.466;2023-10-19T07:30:42;15.30;99.90
20376;DHT22;10347;51.828;6.466;2023-10-19T07:33:09;15.40;99.90
20376;DHT22;10347;51.828;6.466;2023-10-19T07:35:36;15.40;99.90
20376;DHT22;10347;51.828;6.466;2023-10-19T07:38:04;15.40;99.90
20376;DHT22;10347;51.828;6.466;2023-10-19T07:40:32;15.40;99.90
20376;DHT22;10347;51.828;6.466;2023-10-19T07:42:58;15.40;99.90
20376;DHT22;10347;51.828;6.466;2023-10-19T07:45:24;15.40;99.90
20376;DHT22;10347;51.828;6.466;2023-10-19T07:47:50;15.40;99.90
20376;DHT22;10347;51.828;6.466;2023-10-19T07:50:16;15.50;99.90
20376;DHT22;10347;51.828;6.466;2023-10-19T07:52:46;15.50;99.90
20376;DHT22;10347;51.828;6.466;2023-10-19T07:55:14;15.50;99.90
20376;DHT22;10347;51.828;6.466;2023-10-19T07:57:40;15.50;99.90
20376;DHT22;10347;51.828;6.466;2023-10-19T08:00:10;15.50;99.90
20376;DHT22;10347;51.828;6.466;2023-10-19T08:02:39;15.50;99.90
20376;DHT22;10347;51.828;6.466;2023-10-19T08:05:08;15.50;99.90
20376;DHT22;10347;51.828;6.466;2023-10-19T08:07:34;15.60;99.90
20376;DHT22;10347;51.828;6.466;2023-10-19T08:10:02;15.60;99.90
20376;DHT22;10347;51.828;6.466;2023-10-19T08:12:31;15.60;99.90
20376;DHT22;10347;51.828;6.466;2023-10-19T08:14:58;15.60;99.90
20376;DHT22;10347;51.828;6.466;2023-10-19T08:17:24;15.60;99.90
20376;DHT22;10347;51.828;6.466;2023-10-19T08:19:50;15.70;99.90
20376;DHT22;10347;51.828;6.466;2023-10-19T08:22:16;15.70;99.90
20376;DHT22;10347;51.828;6.466;2023-10-19T08:24:41;15.70;99.90
20376;DHT22;10347;51.828;6.466;2023-10-19T08:27:11;15.70;99.90
20376;DHT22;10347;51.828;6.466;2023-10-19T08:29:38;15.80;99.90
20376;DHT22;10347;51.828;6.466;2023-10-19T08:32:04;15.80;99.90
20376;DHT22;10347;51.828;6.466;2023-10-19T08:34:34;15.80;99.90
20376;DHT22;10347;51.828;6.466;2023-10-19T08:37:01;15.80;99.90
20376;DHT22;10347;51.828;6.466;2023-10-19T08:39:27;15.90;99.90
20376;DHT22;10347;51.828;6.466;2023-10-19T08:41:53;15.90;99.90
20376;DHT22;10347;51.828;6.466;2023-10-19T08:44:21;15.90;99.90
20376;DHT22;10347;51.828;6.466;2023-10-19T08:46:46;16.00;99.90
20376;DHT22;10347;51.828;6.466;2023-10-19T08:49:17;16.00;99.90
20376;DHT22;10347;51.828;6.466;2023-10-19T08:51:46;16.00;99.90
20376;DHT22;10347;51.828;6.466;2023-10-19T08:54:13;16.00;99.90
20376;DHT22;10347;51.828;6.466;2023-10-19T08:56:39;16.10;99.90
20376;DHT22;10347;51.828;6.466;2023-10-19T08:59:07;16.10;99.90
20376;DHT22;10347;51.828;6.466;2023-10-19T09:01:32;16.10;99.90
20376;DHT22;10347;51.828;6.466;2023-10-19T09:04:01;16.10;99.90
20376;DHT22;10347;51.828;6.466;2023-10-19T09:06:27;16.10;99.90
20376;DHT22;10347;51.828;6.466;2023-10-19T09:08:56;16.10;99.90
20376;DHT22;10347;51.828;6.466;2023-10-19T09:11:23;16.20;99.90
20376;DHT22;10347;51.828;6.466;2023-10-19T09:13:51;16.20;99.90
20376;DHT22;10347;51.828;6.466;2023-10-19T09:16:19;16.30;99.90
20376;DHT22;10347;51.828;6.466;2023-10-19T09:18:49;16.30;99.90
20376;DHT22;10347;51.828;6.466;2023-10-19T09:21:20;16.30;99.90
20376;DHT22;10347;51.828;6.466;2023-10-19T09:23:56;16.30;99.90
20376;DHT22;10347;51.828;6.466;2023-10-19T09:26:23;16.40;99.90
20376;DHT22;10347;51.828;6.466;2023-10-19T09:28:50;16.40;99.90
20376;DHT22;10347;51.828;6.466;2023-10-19T09:31:17;16.40;99.90
20376;DHT22;10347;51.828;6.466;2023-10-19T09:33:45;16.40;99.90
20376;DHT22;10347;51.828;6.466;2023-10-19T09:36:12;16.40;99.90
20376;DHT22;10347;51.828;6.466;2023-10-19T09:38:42;16.50;99.90
20376;DHT22;10347;51.828;6.466;2023-10-19T09:41:12;16.50;99.90
20376;DHT22;10347;51.828;6.466;2023-10-19T09:43:41;16.50;99.90
20376;DHT22;10347;51.828;6.466;2023-10-19T09:46:09;16.50;99.90
20376;DHT22;10347;51.828;6.466;2023-10-19T09:48:41;16.40;99.90
20376;DHT22;10347;51.828;6.466;2023-10-19T09:51:11;16.50;99.90
20376;DHT22;10347;51.828;6.466;2023-10-19T09:53:38;16.60;99.90
20376;DHT22;10347;51.828;6.466;2023-10-19T09:56:06;16.60;99.90
20376;DHT22;10347;51.828;6.466;2023-10-19T09:58:40;16.60;99.90
20376;DHT22;10347;51.828;6.466;2023-10-19T10:01:08;16.60;99.90
20376;DHT22;10347;51.828;6.466;2023-10-19T10:03:54;16.70;99.90
20376;DHT22;10347;51.828;6.466;2023-10-19T10:09:20;16.70;99.90
20376;DHT22;10347;51.828;6.466;2023-10-19T10:11:49;16.80;99.90
20376;DHT22;10347;51.828;6.466;2023-10-19T10:14:25;16.80;99.90
20376;DHT22;10347;51.828;6.466;2023-10-19T10:17:03;16.80;99.90
20376;DHT22;10347;51.828;6.466;2023-10-19T10:19:30;16.80;99.90
20376;DHT22;10347;51.828;6.466;2023-10-19T10:22:09;16.90;99.90
20376;DHT22;10347;51.828;6.466;2023-10-19T10:24:42;16.90;99.90
20376;DHT22;10347;51.828;6.466;2023-10-19T10:27:08;16.90;99.90
20376;DHT22;10347;51.828;6.466;2023-10-19T10:29:35;17.00;99.90
20376;DHT22;10347;51.828;6.466;2023-10-19T10:32:01;17.00;99.90
20376;DHT22;10347;51.828;6.466;2023-10-19T10:37:11;17.10;99.90
20376;DHT22;10347;51.828;6.466;2023-10-19T10:39:39;17.10;99.90
20376;DHT22;10347;51.828;6.466;2023-10-19T10:42:10;17.10;99.90
20376;DHT22;10347;51.828;6.466;2023-10-19T10:47:09;17.20;99.90
20376;DHT22;10347;51.828;6.466;2023-10-19T10:49:46;17.30;99.90
20376;DHT22;10347;51.828;6.466;2023-10-19T10:52:13;17.30;99.90
20376;DHT22;10347;51.828;6.466;2023-10-19T10:54:39;17.30;99.90
20376;DHT22;10347;51.828;6.466;2023-10-19T10:57:04;17.40;99.90
20376;DHT22;10347;51.828;6.466;2023-10-19T10:59:30;17.50;99.90
20376;DHT22;10347;51.828;6.466;2023-10-19T11:01:56;17.60;99.90
20376;DHT22;10347;51.828;6.466;2023-10-19T11:04:22;17.50;99.90
20376;DHT22;10347;51.828;6.466;2023-10-19T11:06:51;17.60;99.90
20376;DHT22;10347;51.828;6.466;2023-10-19T11:09:18;17.60;99.90
20376;DHT22;10347;51.828;6.466;2023-10-19T11:11:45;17.70;99.90
20376;DHT22;10347;51.828;6.466;2023-10-19T11:14:11;17.70;99.90
20376;DHT22;10347;51.828;6.466;2023-10-19T11:16:37;17.70;99.90
20376;DHT22;10347;51.828;6.466;2023-10-19T11:19:04;17.80;99.90
20376;DHT22;10347;51.828;6.466;2023-10-19T11:21:30;17.80;99.90
20376;DHT22;10347;51.828;6.466;2023-10-19T11:23:56;17.80;99.90
20376;DHT22;10347;51.828;6.466;2023-10-19T11:26:23;17.90;99.90
20376;DHT22;10347;51.828;6.466;2023-10-19T11:29:02;17.90;99.90
20376;DHT22;10347;51.828;6.466;2023-10-19T11:31:29;18.00;99.90
20376;DHT22;10347;51.828;6.466;2023-10-19T11:34:03;18.00;99.90
20376;DHT22;10347;51.828;6.466;2023-10-19T11:36:29;18.10;99.90
20376;DHT22;10347;51.828;6.466;2023-10-19T11:38:55;18.10;99.90
20376;DHT22;10347;51.828;6.466;2023-10-19T11:41:21;18.20;99.90
20376;DHT22;10347;51.828;6.466;2023-10-19T11:43:48;18.20;99.90
20376;DHT22;10347;51.828;6.466;2023-10-19T11:46:14;18.30;99.90
20376;DHT22;10347;51.828;6.466;2023-10-19T11:48:40;18.30;99.90
20376;DHT22;10347;51.828;6.466;2023-10-19T11:51:08;18.40;99.90
20376;DHT22;10347;51.828;6.466;2023-10-19T11:53:37;18.40;99.90
20376;DHT22;10347;51.828;6.466;2023-10-19T11:56:03;18.50;99.90
20376;DHT22;10347;51.828;6.466;2023-10-19T11:58:30;18.50;99.90
20376;DHT22;10347;51.828;6.466;2023-10-19T12:01:01;18.60;99.90
20376;DHT22;10347;51.828;6.466;2023-10-19T12:03:31;18.60;99.90
20376;DHT22;10347;51.828;6.466;2023-10-19T12:05:56;18.70;99.90
20376;DHT22;10347;51.828;6.466;2023-10-19T12:08:22;18.70;99.90
20376;DHT22;10347;51.828;6.466;2023-10-19T12:10:50;18.80;99.90
20376;DHT22;10347;51.828;6.466;2023-10-19T12:13:15;18.80;99.90
20376;DHT22;10347;51.828;6.466;2023-10-19T12:15:41;18.90;99.90
20376;DHT22;10347;51.828;6.466;2023-10-19T12:18:07;19.00;99.90
20376;DHT22;10347;51.828;6.466;2023-10-19T12:20:33;19.00;99.90
20376;DHT22;10347;51.828;6.466;2023-10-19T12:23:01;19.10;99.90
20376;DHT22;10347;51.828;6.466;2023-10-19T12:25:26;19.10;99.90
20376;DHT22;10347;51.828;6.466;2023-10-19T12:27:57;19.10;99.90
20376;DHT22;10347;51.828;6.466;2023-10-19T12:30:23;19.10;99.90
20376;DHT22;10347;51.828;6.466;2023-10-19T12:32:54;19.20;99.90
20376;DHT22;10347;51.828;6.466;2023-10-19T12:35:20;19.20;99.90
20376;DHT22;10347;51.828;6.466;2023-10-19T12:37:50;19.20;99.90
20376;DHT22;10347;51.828;6.466;2023-10-19T12:40:18;19.20;99.90
20376;DHT22;10347;51.828;6.466;2023-10-19T12:42:54;19.30;99.90
20376;DHT22;10347;51.828;6.466;2023-10-19T12:45:24;19.30;99.90
20376;DHT22;10347;51.828;6.466;2023-10-19T12:47:51;19.30;99.90
20376;DHT22;10347;51.828;6.466;2023-10-19T12:50:21;19.30;99.90
20376;DHT22;10347;51.828;6.466;2023-10-19T12:52:49;19.30;99.90
20376;DHT22;10347;51.828;6.466;2023-10-19T12:55:16;19.30;99.90
20376;DHT22;10347;51.828;6.466;2023-10-19T12:57:42;19.30;99.90
20376;DHT22;10347;51.828;6.466;2023-10-19T13:00:08;19.30;99.90
20376;DHT22;10347;51.828;6.466;2023-10-19T13:02:55;19.30;99.90
20376;DHT22;10347;51.828;6.466;2023-10-19T13:05:27;19.30;99.90
20376;DHT22;10347;51.828;6.466;2023-10-19T13:07:53;19.30;99.90
20376;DHT22;10347;51.828;6.466;2023-10-19T13:10:27;19.30;99.90
20376;DHT22;10347;51.828;6.466;2023-10-19T13:12:53;19.30;99.90
20376;DHT22;10347;51.828;6.466;2023-10-19T13:15:19;19.30;99.90
20376;DHT22;10347;51.828;6.466;2023-10-19T13:17:47;19.30;99.90
20376;DHT22;10347;51.828;6.466;2023-10-19T13:20:13;19.30;99.90
20376;DHT22;10347;51.828;6.466;2023-10-19T13:22:43;19.30;99.90
20376;DHT22;10347;51.828;6.466;2023-10-19T13:25:10;19.40;99.90
20376;DHT22;10347;51.828;6.466;2023-10-19T13:27:39;19.30;99.90
20376;DHT22;10347;51.828;6.466;2023-10-19T13:30:07;19.30;99.90
20376;DHT22;10347;51.828;6.466;2023-10-19T13:32:36;19.30;99.90
20376;DHT22;10347;51.828;6.466;2023-10-19T13:35:01;19.30;99.90
20376;DHT22;10347;51.828;6.466;2023-10-19T13:37:27;19.30;99.90
20376;DHT22;10347;51.828;6.466;2023-10-19T13:39:53;19.30;99.90
20376;DHT22;10347;51.828;6.466;2023-10-19T13:42:20;19.30;99.90
20376;DHT22;10347;51.828;6.466;2023-10-19T13:44:47;19.30;99.90
20376;DHT22;10347;51.828;6.466;2023-10-19T13:47:12;19.30;99.90
20376;DHT22;10347;51.828;6.466;2023-10-19T13:49:38;19.30;99.90
20376;DHT22;10347;51.828;6.466;2023-10-19T13:52:04;19.20;99.90
20376;DHT22;10347;51.828;6.466;2023-10-19T13:54:34;19.20;99.90
20376;DHT22;10347;51.828;6.466;2023-10-19T13:57:00;19.20;99.90
20376;DHT22;10347;51.828;6.466;2023-10-19T13:59:28;19.20;99.90
20376;DHT22;10347;51.828;6.466;2023-10-19T14:01:54;19.20;99.90
20376;DHT22;10347;51.828;6.466;2023-10-19T14:04:19;19.20;99.90
20376;DHT22;10347;51.828;6.466;2023-10-19T14:06:45;19.10;99.90
20376;DHT22;10347;51.828;6.466;2023-10-19T14:09:14;19.10;99.90
20376;DHT22;10347;51.828;6.466;2023-10-19T14:11:40;19.20;99.90
20376;DHT22;10347;51.828;6.466;2023-10-19T14:14:06;19.10;99.90
20376;DHT22;10347;51.828;6.466;2023-10-19T14:16:32;19.10;99.90
20376;DHT22;10347;51.828;6.466;2023-10-19T14:18:57;19.10;99.90
20376;DHT22;10347;51.828;6.466;2023-10-19T14:21:23;19.10;99.90
20376;DHT22;10347;51.828;6.466;2023-10-19T14:23:52;19.10;99.90
20376;DHT22;10347;51.828;6.466;2023-10-19T14:26:19;19.10;99.90
20376;DHT22;10347;51.828;6.466;2023-10-19T14:28:45;19.10;99.90
20376;DHT22;10347;51.828;6.466;2023-10-19T14:31:10;19.10;99.90
20376;DHT22;10347;51.828;6.466;2023-10-19T14:33:37;19.10;99.90
20376;DHT22;10347;51.828;6.466;2023-10-19T14:36:06;19.10;99.90
20376;DHT22;10347;51.828;6.466;2023-10-19T14:38:32;19.10;99.90
20376;DHT22;10347;51.828;6.466;2023-10-19T14:40:59;19.10;99.90
20376;DHT22;10347;51.828;6.466;2023-10-19T14:43:24;19.10;99.90
20376;DHT22;10347;51.828;6.466;2023-10-19T14:45:54;19.00;99.90
20376;DHT22;10347;51.828;6.466;2023-10-19T14:48:22;19.10;99.90
20376;DHT22;10347;51.828;6.466;2023-10-19T14:50:48;19.10;99.90
20376;DHT22;10347;51.828;6.466;2023-10-19T14:53:15;19.00;99.90
20376;DHT22;10347;51.828;6.466;2023-10-19T14:55:43;19.00;99.90
20376;DHT22;10347;51.828;6.466;2023-10-19T14:58:10;19.00;99.90
20376;DHT22;10347;51.828;6.466;2023-10-19T15:00:35;19.00;99.90
20376;DHT22;10347;51.828;6.466;2023-10-19T15:03:07;19.00;99.90
20376;DHT22;10347;51.828;6.466;2023-10-19T15:05:34;19.00;99.90
20376;DHT22;10347;51.828;6.466;2023-10-19T15:08:04;19.00;99.90
20376;DHT22;10347;51.828;6.466;2023-10-19T15:10:30;19.00;99.90
20376;DHT22;10347;51.828;6.466;2023-10-19T15:12:57;19.00;99.90
20376;DHT22;10347;51.828;6.466;2023-10-19T15:15:25;19.00;99.90
20376;DHT22;10347;51.828;6.466;2023-10-19T15:17:51;19.00;99.90
20376;DHT22;10347;51.828;6.466;2023-10-19T15:20:25;19.00;99.90
20376;DHT22;10347;51.828;6.466;2023-10-19T15:22:51;19.00;99.90
20376;DHT22;10347;51.828;6.466;2023-10-19T15:25:19;18.90;99.90
20376;DHT22;10347;51.828;6.466;2023-10-19T15:27:45;19.00;99.90
20376;DHT22;10347;51.828;6.466;2023-10-19T15:30:12;18.90;99.90
20376;DHT22;10347;51.828;6.466;2023-10-19T15:32:41;18.90;99.90
20376;DHT22;10347;51.828;6.466;2023-10-19T15:35:17;18.90;99.90
20376;DHT22;10347;51.828;6.466;2023-10-19T15:37:53;18.90;99.90
20376;DHT22;10347;51.828;6.466;2023-10-19T15:40:23;18.90;99.90
20376;DHT22;10347;51.828;6.466;2023-10-19T15:42:49;18.90;99.90
20376;DHT22;10347;51.828;6.466;2023-10-19T15:45:15;18.90;99.90
20376;DHT22;10347;51.828;6.466;2023-10-19T15:47:44;18.90;99.90
20376;DHT22;10347;51.828;6.466;2023-10-19T15:50:12;18.90;99.90